createdAt,value
2023-04-11T00:00:27.160Z,51.85
2023-04-11T00:02:54.207Z,53.56
2023-04-11T00:05:23.008Z,54.36
2023-04-11T00:07:49.928Z,55.33
2023-04-11T00:10:17.026Z,57.33
2023-04-11T00:12:44.064Z,57.31
2023-04-11T00:15:11.584Z,58.93
2023-04-11T00:17:38.738Z,58.51
2023-04-11T00:20:08.070Z,58.26
2023-04-11T00:22:36.535Z,58.75
2023-04-11T00:25:03.534Z,59.26
2023-04-11T00:27:32.340Z,60.10
2023-04-11T00:29:59.458Z,59.45
2023-04-11T00:32:26.818Z,59.82
2023-04-11T00:34:54.129Z,59.43
2023-04-11T00:37:22.306Z,61.18
2023-04-11T00:39:51.424Z,61.13
2023-04-11T00:42:20.026Z,61.30
2023-04-11T00:44:47.270Z,60.60
2023-04-11T00:47:18.203Z,60.76
2023-04-11T00:49:46.056Z,59.94
2023-04-11T00:52:13.320Z,60.99
2023-04-11T00:54:40.646Z,62.11
2023-04-11T00:57:10.003Z,62.32
2023-04-11T00:59:37.171Z,62.86
2023-04-11T01:02:04.110Z,64.10
2023-04-11T01:04:31.196Z,66.17
2023-04-11T01:07:04.351Z,67.40
2023-04-11T01:09:34.644Z,68.89
2023-04-11T01:12:04.977Z,70.77
2023-04-11T01:14:42.590Z,72.02
2023-04-11T01:17:10.908Z,72.68
2023-04-11T01:19:38.984Z,73.62
2023-04-11T01:22:09.059Z,75.20
2023-04-11T01:24:37.752Z,76.23
2023-04-11T01:27:05.003Z,77.10
2023-04-11T01:29:40.517Z,77.38
2023-04-11T01:32:08.301Z,77.82
2023-04-11T01:34:40.130Z,78.69
2023-04-11T01:37:08.486Z,79.07
2023-04-11T01:39:37.049Z,79.80
2023-04-11T01:42:06.297Z,79.75
2023-04-11T01:44:33.818Z,79.08
2023-04-11T01:47:04.175Z,80.22
2023-04-11T01:49:31.254Z,81.56
2023-04-11T01:52:00.980Z,81.82
2023-04-11T01:54:27.877Z,82.33
2023-04-11T01:57:03.349Z,82.39
2023-04-11T01:59:30.399Z,82.75
2023-04-11T02:01:58.192Z,82.95
2023-04-11T02:04:25.226Z,83.15
2023-04-11T02:06:52.282Z,82.73
2023-04-11T02:09:19.533Z,82.51
2023-04-11T02:11:48.128Z,82.51
2023-04-11T02:14:20.545Z,82.02
2023-04-11T02:16:53.237Z,82.45
2023-04-11T02:19:20.658Z,82.10
2023-04-11T02:21:47.741Z,81.62
2023-04-11T02:24:16.142Z,81.74
2023-04-11T02:26:43.429Z,82.07
2023-04-11T02:29:10.770Z,82.24
2023-04-11T02:31:39.248Z,82.69
2023-04-11T02:34:06.200Z,81.95
2023-04-11T02:36:35.133Z,82.32
2023-04-11T02:39:03.642Z,82.08
2023-04-11T02:41:30.840Z,82.11
2023-04-11T02:43:57.981Z,82.12
2023-04-11T02:46:25.046Z,82.19
2023-04-11T02:48:53.419Z,82.95
2023-04-11T02:51:25.492Z,83.68
2023-04-11T02:53:53.274Z,83.47
2023-04-11T02:56:21.471Z,83.92
2023-04-11T02:58:52.349Z,82.83
2023-04-11T03:01:24.458Z,82.38
2023-04-11T03:03:57.029Z,80.81
2023-04-11T03:06:29.699Z,80.76
2023-04-11T03:09:20.148Z,80.74
2023-04-11T03:11:56.868Z,79.98
2023-04-11T03:14:58.273Z,80.00
2023-04-11T03:21:38.543Z,80.12
2023-04-11T03:24:07.235Z,80.03
2023-04-11T03:26:34.261Z,80.98
2023-04-11T03:29:08.275Z,80.40
2023-04-11T03:31:44.454Z,80.49
2023-04-11T03:34:11.926Z,80.92
2023-04-11T03:36:42.199Z,80.82
2023-04-11T03:39:10.556Z,80.02
2023-04-11T03:41:37.498Z,80.66
2023-04-11T03:44:07.565Z,80.63
2023-04-11T03:46:34.944Z,80.23
2023-04-11T03:49:01.987Z,80.03
2023-04-11T03:51:29.740Z,80.20
2023-04-11T03:54:04.470Z,80.84
2023-04-11T03:56:40.486Z,80.80
2023-04-11T03:59:12.014Z,80.68
2023-04-11T04:01:49.741Z,80.75
2023-04-11T04:04:17.248Z,80.88
2023-04-11T04:06:50.640Z,81.42
2023-04-11T04:09:19.471Z,80.97
2023-04-11T04:11:50.761Z,81.05
2023-04-11T04:14:21.686Z,80.55
2023-04-11T04:16:49.020Z,82.15
2023-04-11T04:19:17.190Z,82.26
2023-04-11T04:21:46.496Z,82.40
2023-04-11T04:24:15.811Z,80.89
2023-04-11T04:27:08.451Z,80.79
2023-04-11T04:29:46.682Z,81.00
2023-04-11T04:32:21.893Z,81.51
2023-04-11T04:34:53.088Z,82.14
2023-04-11T04:37:26.479Z,82.28
2023-04-11T04:40:01.495Z,82.38
2023-04-11T04:42:32.747Z,82.23
2023-04-11T04:45:04.333Z,82.47
2023-04-11T04:47:37.153Z,81.95
2023-04-11T04:50:05.093Z,82.03
2023-04-11T04:52:32.532Z,82.40
2023-04-11T04:54:59.572Z,81.30
2023-04-11T04:57:29.384Z,81.21
2023-04-11T04:59:59.948Z,81.50
2023-04-11T05:02:27.424Z,81.14
2023-04-11T05:04:57.370Z,81.48
2023-04-11T05:07:25.145Z,82.48
2023-04-11T05:09:52.376Z,82.82
2023-04-11T05:12:23.104Z,82.90
2023-04-11T05:14:50.185Z,83.26
2023-04-11T05:17:19.278Z,81.00
2023-04-11T05:19:46.620Z,81.58
2023-04-11T05:22:13.574Z,81.04
2023-04-11T05:24:45.405Z,81.22
2023-04-11T05:27:13.161Z,79.82
2023-04-11T05:29:41.926Z,79.44
2023-04-11T05:32:09.217Z,77.83
2023-04-11T05:34:51.945Z,77.35
2023-04-11T05:37:25.209Z,76.39
2023-04-11T05:39:52.247Z,76.31
2023-04-11T05:42:21.046Z,76.90
2023-04-11T05:44:47.924Z,75.25
2023-04-11T05:47:14.823Z,75.54
2023-04-11T05:49:43.404Z,76.73
2023-04-11T05:52:10.286Z,76.16
2023-04-11T05:54:37.587Z,75.97
2023-04-11T05:57:04.649Z,75.63
2023-04-11T05:59:32.539Z,75.55
2023-04-11T06:02:00.904Z,75.31
2023-04-11T06:04:28.951Z,75.58
2023-04-11T06:06:59.097Z,75.14
2023-04-11T06:09:31.515Z,75.36
2023-04-11T06:12:01.066Z,76.15
2023-04-11T06:14:28.204Z,75.92
2023-04-11T06:16:55.591Z,74.60
2023-04-11T06:19:22.494Z,75.02
2023-04-11T06:21:49.448Z,75.50
2023-04-11T06:24:17.836Z,75.34
2023-04-11T06:26:45.271Z,74.97
2023-04-11T06:29:12.142Z,74.88
2023-04-11T06:31:40.336Z,74.18
2023-04-11T06:34:08.788Z,73.87
2023-04-11T06:36:35.859Z,74.16
2023-04-11T06:39:02.714Z,73.44
2023-04-11T06:41:31.020Z,73.31
2023-04-11T06:43:59.142Z,73.09
2023-04-11T06:46:27.762Z,72.65
2023-04-11T06:48:54.659Z,71.40
2023-04-11T06:51:21.646Z,71.05
2023-04-11T06:53:48.607Z,70.93
2023-04-11T06:56:15.461Z,71.38
2023-04-11T06:58:43.765Z,71.22
2023-04-11T07:01:13.582Z,71.15
2023-04-11T07:03:40.730Z,71.11
2023-04-11T07:06:08.296Z,70.00
2023-04-11T07:08:35.146Z,66.38
2023-04-11T07:11:04.083Z,63.16
2023-04-11T07:13:31.123Z,59.88
2023-04-11T07:15:59.504Z,58.86
2023-04-11T07:18:27.594Z,58.71
2023-04-11T07:20:54.420Z,59.28
2023-04-11T07:23:22.425Z,58.49
2023-04-11T07:25:52.794Z,58.07
2023-04-11T07:28:19.716Z,58.79
2023-04-11T07:30:47.021Z,60.66
2023-04-11T07:33:15.744Z,60.47
2023-04-11T07:35:44.342Z,60.42
2023-04-11T07:38:13.596Z,58.79
2023-04-11T07:40:40.681Z,57.43
2023-04-11T07:43:07.695Z,55.87
2023-04-11T07:45:34.810Z,55.78
2023-04-11T07:48:01.730Z,55.88
2023-04-11T07:50:30.003Z,58.12
2023-04-11T07:52:59.268Z,58.20
2023-04-11T07:55:26.280Z,57.86
2023-04-11T07:57:53.634Z,57.30
2023-04-11T08:00:23.609Z,56.72
2023-04-11T08:02:50.819Z,57.32
2023-04-11T08:05:18.445Z,58.33
2023-04-11T08:07:47.843Z,58.30
2023-04-11T08:10:15.067Z,57.19
2023-04-11T08:12:42.344Z,55.66
2023-04-11T08:15:10.222Z,54.83
2023-04-11T08:17:37.907Z,53.88
2023-04-11T08:20:06.765Z,52.44
2023-04-11T08:22:34.682Z,52.75
2023-04-11T08:25:02.948Z,52.53
2023-04-11T08:27:30.579Z,51.54
2023-04-11T08:29:57.793Z,51.96
2023-04-11T08:32:25.375Z,50.99
2023-04-11T08:34:52.373Z,49.80
2023-04-11T08:37:19.367Z,45.99
2023-04-11T08:39:46.240Z,42.52
2023-04-11T08:42:24.146Z,40.65
2023-04-11T08:44:54.657Z,38.06
2023-04-11T08:47:22.795Z,37.18
2023-04-11T08:49:50.580Z,38.24
2023-04-11T08:52:18.458Z,38.17
2023-04-11T08:54:45.811Z,39.43
2023-04-11T08:57:24.721Z,43.88
2023-04-11T08:59:52.266Z,42.68
2023-04-11T09:02:20.601Z,44.08
2023-04-11T09:04:47.742Z,44.14
2023-04-11T09:07:16.308Z,43.78
2023-04-11T09:09:43.443Z,44.15
2023-04-11T09:12:11.841Z,44.87
2023-04-11T09:14:40.796Z,44.71
2023-04-11T09:17:09.022Z,45.35
2023-04-11T09:19:38.426Z,46.07
2023-04-11T09:22:05.400Z,47.10
2023-04-11T09:24:35.151Z,47.26
2023-04-11T09:27:11.523Z,46.57
2023-04-11T09:29:42.277Z,47.74
2023-04-11T09:32:27.395Z,48.73
2023-04-11T09:35:10.389Z,49.53
2023-04-11T09:37:43.580Z,51.23
2023-04-11T09:40:11.178Z,49.94
2023-04-11T09:42:38.154Z,47.14
2023-04-11T09:45:17.601Z,45.49
2023-04-11T09:47:45.009Z,45.80
2023-04-11T09:50:12.486Z,47.74
2023-04-11T09:52:41.509Z,48.41
2023-04-11T09:55:11.231Z,45.25
2023-04-11T09:57:42.520Z,45.67
2023-04-11T10:00:13.851Z,44.20
2023-04-11T10:02:44.546Z,42.20
2023-04-11T10:05:13.639Z,40.52
2023-04-11T10:07:52.285Z,40.08
2023-04-11T10:10:22.910Z,41.21
2023-04-11T10:12:51.597Z,43.96
2023-04-11T10:15:19.939Z,43.12
2023-04-11T10:18:07.992Z,44.49
2023-04-11T10:20:56.037Z,43.94
2023-04-11T10:23:23.004Z,44.95
2023-04-11T10:25:53.473Z,44.39
2023-04-11T10:28:35.804Z,44.54
2023-04-11T10:31:07.728Z,42.10
2023-04-11T10:33:37.236Z,42.71
2023-04-11T10:36:07.280Z,43.38
2023-04-11T10:38:48.134Z,43.66
2023-04-11T10:41:17.999Z,44.41
2023-04-11T10:43:45.833Z,45.18
2023-04-11T10:46:22.489Z,45.00
2023-04-11T10:49:05.992Z,43.29
2023-04-11T10:51:34.893Z,41.72
2023-04-11T10:54:02.443Z,40.48
2023-04-11T10:56:55.415Z,41.69
2023-04-11T11:02:42.763Z,44.08
2023-04-11T11:05:22.933Z,47.16
2023-04-11T11:07:53.441Z,46.91
2023-04-11T11:10:42.109Z,46.44
2023-04-11T11:13:10.966Z,45.39
2023-04-11T11:15:38.206Z,42.33
2023-04-11T11:18:09.979Z,42.02
2023-04-11T11:20:37.701Z,41.48
2023-04-11T11:23:07.640Z,39.56
2023-04-11T11:25:35.914Z,39.24
2023-04-11T11:28:05.720Z,38.44
2023-04-11T11:30:36.611Z,35.63
2023-04-11T11:33:19.353Z,38.65
2023-04-11T11:35:52.834Z,39.54
2023-04-11T11:38:22.004Z,39.12
2023-04-11T11:40:49.928Z,38.06
2023-04-11T11:43:18.218Z,38.74
2023-04-11T11:45:46.287Z,40.28
2023-04-11T11:48:22.276Z,41.34
2023-04-11T11:50:55.976Z,42.02
2023-04-11T11:53:23.823Z,41.51
2023-04-11T11:55:52.730Z,42.74
2023-04-11T11:58:20.268Z,44.10
2023-04-11T12:00:51.909Z,45.36
2023-04-11T12:03:24.865Z,46.24
2023-04-11T12:05:55.387Z,47.89
2023-04-11T12:08:24.935Z,50.72
2023-04-11T12:10:52.958Z,52.63
2023-04-11T12:13:21.968Z,52.95
2023-04-11T12:15:55.161Z,52.74
2023-04-11T12:18:27.960Z,51.61
2023-04-11T12:20:55.761Z,51.07
2023-04-11T12:23:23.440Z,50.00
2023-04-11T12:25:50.440Z,50.15
2023-04-11T12:28:17.990Z,49.76
2023-04-11T12:30:44.856Z,49.52
2023-04-11T12:33:15.708Z,48.36
2023-04-11T12:35:45.668Z,48.44
2023-04-11T12:38:15.018Z,48.32
2023-04-11T12:40:45.518Z,48.02
2023-04-11T12:43:12.420Z,47.78
2023-04-11T12:45:46.214Z,47.49
2023-04-11T12:48:13.355Z,48.08
2023-04-11T12:50:40.528Z,47.59
2023-04-11T12:53:08.791Z,45.06
2023-04-11T12:55:35.987Z,43.99
2023-04-11T12:58:03.240Z,44.94
2023-04-11T13:00:30.790Z,43.98
2023-04-11T13:03:00.071Z,43.22
2023-04-11T13:05:27.223Z,44.73
2023-04-11T13:07:54.048Z,43.69
2023-04-11T13:10:23.925Z,43.25
2023-04-11T13:12:51.929Z,44.51
2023-04-11T13:15:20.057Z,44.60
2023-04-11T13:17:48.381Z,44.28
2023-04-11T13:20:16.146Z,43.51
2023-04-11T13:22:43.836Z,44.06
2023-04-11T13:25:23.867Z,44.37
2023-04-11T13:27:51.562Z,43.46
2023-04-11T13:30:18.911Z,41.78
2023-04-11T13:32:45.945Z,42.98
2023-04-11T13:35:12.969Z,42.46
2023-04-11T13:37:39.815Z,42.83
2023-04-11T13:40:08.448Z,42.92
2023-04-11T13:42:38.225Z,43.50
2023-04-11T13:45:07.116Z,44.01
2023-04-11T13:47:35.486Z,43.09
2023-04-11T13:50:07.076Z,43.64
2023-04-11T13:52:34.780Z,43.78
2023-04-11T13:55:02.522Z,44.07
2023-04-11T13:57:29.475Z,44.61
2023-04-11T13:59:58.457Z,45.65
2023-04-11T14:02:25.394Z,46.15
2023-04-11T14:04:52.831Z,46.08
2023-04-11T14:07:19.666Z,45.87
2023-04-11T14:09:47.131Z,45.40
2023-04-11T14:12:14.974Z,43.72
2023-04-11T14:14:41.817Z,43.44
2023-04-11T14:17:11.238Z,44.05
2023-04-11T14:19:38.123Z,44.82
2023-04-11T14:22:05.263Z,42.94
2023-04-11T14:24:33.361Z,41.17
2023-04-11T14:27:00.224Z,41.18
2023-04-11T14:29:27.351Z,42.33
2023-04-11T14:31:55.182Z,43.09
2023-04-11T14:34:24.974Z,42.42
2023-04-11T14:36:52.229Z,41.65
2023-04-11T14:39:19.863Z,42.41
2023-04-11T14:41:48.250Z,41.70
2023-04-11T14:44:15.340Z,42.42
2023-04-11T14:46:43.871Z,42.67
2023-04-11T14:49:10.986Z,42.96
2023-04-11T14:51:39.108Z,42.35
2023-04-11T14:54:06.201Z,42.52
2023-04-11T14:56:32.993Z,42.74
2023-04-11T14:59:00.255Z,42.64
2023-04-11T15:01:27.087Z,42.38
2023-04-11T15:03:55.740Z,41.99
2023-04-11T15:06:23.137Z,40.20
2023-04-11T15:08:52.396Z,38.75
2023-04-11T15:11:20.226Z,38.90
2023-04-11T15:13:47.981Z,38.43
2023-04-11T15:16:14.937Z,37.64
2023-04-11T15:18:42.953Z,38.62
2023-04-11T15:21:11.552Z,38.92
2023-04-11T15:23:38.590Z,38.99
2023-04-11T15:26:06.956Z,39.19
2023-04-11T15:28:37.243Z,39.06
2023-04-11T15:31:07.184Z,39.21
2023-04-11T15:33:34.390Z,39.25
2023-04-11T15:36:01.522Z,39.96
2023-04-11T15:38:28.997Z,39.27
2023-04-11T15:40:58.636Z,39.38
2023-04-11T15:43:27.325Z,38.18
2023-04-11T15:45:54.394Z,38.27
2023-04-11T15:48:22.195Z,38.96
2023-04-11T15:50:49.133Z,39.19
2023-04-11T15:53:16.347Z,39.53
2023-04-11T15:55:44.327Z,39.50
2023-04-11T15:58:12.759Z,39.63
2023-04-11T16:00:41.130Z,40.01
2023-04-11T16:03:09.080Z,39.45
2023-04-11T16:05:37.536Z,39.88
2023-04-11T16:08:06.288Z,40.19
2023-04-11T16:10:33.342Z,39.58
2023-04-11T16:13:03.168Z,40.25
2023-04-11T16:15:30.661Z,39.98
2023-04-11T16:17:58.945Z,40.33
2023-04-11T16:20:26.967Z,39.93
2023-04-11T16:22:54.065Z,39.65
2023-04-11T16:25:21.740Z,39.61
2023-04-11T16:27:50.265Z,40.17
2023-04-11T16:30:17.485Z,39.85
2023-04-11T16:32:44.753Z,39.14
2023-04-11T16:35:14.171Z,39.36
2023-04-11T16:37:41.354Z,38.86
2023-04-11T16:40:10.468Z,40.44
2023-04-11T16:42:38.697Z,39.95
2023-04-11T16:45:07.786Z,40.48
2023-04-11T16:47:36.503Z,40.87
2023-04-11T16:50:04.741Z,41.28
2023-04-11T16:52:35.993Z,41.14
2023-04-11T16:55:03.967Z,41.66
2023-04-11T16:57:31.050Z,41.69
2023-04-11T16:59:57.903Z,42.16
2023-04-11T17:02:25.241Z,42.03
2023-04-11T17:04:52.297Z,42.25
2023-04-11T17:07:19.370Z,42.09
2023-04-11T17:09:48.791Z,42.72
2023-04-11T17:12:15.790Z,42.63
2023-04-11T17:14:42.837Z,42.99
2023-04-11T17:17:10.610Z,43.00
2023-04-11T17:19:38.777Z,43.14
2023-04-11T17:22:05.675Z,43.15
2023-04-11T17:24:33.223Z,43.44
2023-04-11T17:27:01.580Z,43.12
2023-04-11T17:29:52.723Z,43.18
2023-04-11T17:32:20.446Z,43.14
2023-04-11T17:34:47.579Z,44.08
2023-04-11T17:37:14.526Z,43.46
2023-04-11T17:39:42.526Z,43.55
2023-04-11T17:42:10.910Z,43.11
2023-04-11T17:44:37.801Z,43.95
2023-04-11T17:47:06.712Z,44.70
2023-04-11T17:49:34.243Z,44.21
2023-04-11T17:52:01.542Z,44.61
2023-04-11T17:54:28.993Z,44.60
2023-04-11T17:56:56.066Z,44.68
2023-04-11T17:59:24.576Z,44.45
2023-04-11T18:01:51.924Z,44.75
2023-04-11T18:04:19.092Z,45.66
2023-04-11T18:06:46.287Z,45.38
2023-04-11T18:09:13.584Z,45.23
2023-04-11T18:11:40.505Z,45.51
2023-04-11T18:14:07.471Z,45.61
2023-04-11T18:16:35.935Z,46.08
2023-04-11T18:19:03.720Z,46.25
2023-04-11T18:21:30.604Z,46.44
2023-04-11T18:23:58.217Z,46.58
2023-04-11T18:26:25.787Z,46.67
2023-04-11T18:28:52.838Z,46.58
2023-04-11T18:31:19.772Z,46.82
2023-04-11T18:33:48.403Z,47.08
2023-04-11T18:36:15.678Z,47.20
2023-04-11T18:38:42.618Z,47.15
2023-04-11T18:41:10.269Z,47.00
2023-04-11T18:43:39.284Z,46.46
2023-04-11T18:46:07.265Z,47.13
2023-04-11T18:48:34.200Z,47.29
2023-04-11T18:51:02.772Z,49.29
2023-04-11T18:53:30.224Z,49.17
2023-04-11T18:55:57.195Z,50.08
2023-04-11T18:58:26.031Z,50.23
2023-04-11T19:00:54.424Z,52.90
2023-04-11T19:03:23.484Z,54.72
2023-04-11T19:05:54.373Z,57.09
2023-04-11T19:08:22.826Z,58.81
2023-04-11T19:10:51.133Z,58.39
2023-04-11T19:13:21.456Z,59.26
2023-04-11T19:15:48.757Z,60.47
2023-04-11T19:18:15.745Z,61.33
2023-04-11T19:20:42.882Z,59.95
2023-04-11T19:23:10.019Z,60.76
2023-04-11T19:25:38.351Z,61.54
2023-04-11T19:28:05.442Z,60.93
2023-04-11T19:30:33.118Z,61.67
2023-04-11T19:33:00.665Z,62.44
2023-04-11T19:35:28.926Z,62.17
2023-04-11T19:37:56.029Z,61.99
2023-04-11T19:40:26.230Z,62.17
2023-04-11T19:42:54.646Z,62.33
2023-04-11T19:45:21.741Z,62.62
2023-04-11T19:47:49.577Z,62.09
2023-04-11T19:50:16.887Z,60.17
2023-04-11T19:52:45.015Z,59.53
2023-04-11T19:55:13.527Z,60.15
2023-04-11T19:57:40.741Z,59.08
2023-04-11T20:00:12.616Z,59.74
2023-04-11T20:02:42.505Z,60.79
2023-04-11T20:05:10.735Z,61.19
2023-04-11T20:07:37.606Z,61.66
2023-04-11T20:10:06.926Z,62.92
2023-04-11T20:12:33.996Z,63.46
2023-04-11T20:15:01.235Z,62.55
2023-04-11T20:17:29.852Z,61.23
2023-04-11T20:19:56.794Z,61.30
2023-04-11T20:22:28.611Z,63.47
2023-04-11T20:24:55.516Z,62.83
2023-04-11T20:27:22.450Z,61.19
2023-04-11T20:29:49.309Z,60.16
2023-04-11T20:32:16.721Z,60.28
2023-04-11T20:34:46.175Z,61.88
2023-04-11T20:37:13.203Z,62.31
2023-04-11T20:39:40.190Z,63.36
2023-04-11T20:42:07.421Z,64.29
2023-04-11T20:44:34.409Z,65.31
2023-04-11T20:47:01.228Z,65.41
2023-04-11T20:49:29.275Z,62.48
2023-04-11T20:51:57.590Z,61.53
2023-04-11T20:54:24.538Z,61.92
2023-04-11T20:56:51.487Z,64.69
2023-04-11T20:59:18.508Z,63.12
2023-04-11T21:01:45.521Z,64.60
2023-04-11T21:04:12.640Z,65.17
2023-04-11T21:06:39.717Z,63.86
2023-04-11T21:09:07.977Z,63.55
2023-04-11T21:11:34.897Z,64.37
2023-04-11T21:14:02.630Z,63.92
2023-04-11T21:16:29.726Z,63.88
2023-04-11T21:18:56.702Z,64.20
2023-04-11T21:21:23.710Z,64.59
2023-04-11T21:23:50.713Z,63.69
2023-04-11T21:26:19.388Z,63.08
2023-04-11T21:28:46.265Z,64.05
2023-04-11T21:31:13.492Z,63.81
2023-04-11T21:33:40.585Z,65.01
2023-04-11T21:36:09.013Z,63.58
2023-04-11T21:38:35.909Z,65.52
2023-04-11T21:41:02.884Z,65.70
2023-04-11T21:43:31.372Z,65.69
2023-04-11T21:45:58.248Z,66.48
2023-04-11T21:48:25.402Z,66.17
2023-04-11T21:50:52.640Z,65.98
2023-04-11T21:53:19.581Z,66.67
2023-04-11T21:55:46.973Z,64.49
2023-04-11T21:58:27.961Z,62.95
2023-04-11T22:00:57.664Z,60.12
2023-04-11T22:03:25.120Z,61.53
2023-04-11T22:05:52.496Z,63.87
2023-04-11T22:08:20.132Z,63.91
2023-04-11T22:10:48.507Z,65.37
2023-04-11T22:13:17.726Z,65.46
2023-04-11T22:15:46.615Z,64.81
2023-04-11T22:18:15.064Z,65.13
2023-04-11T22:20:43.753Z,65.06
2023-04-11T22:23:12.120Z,64.59
2023-04-11T22:25:41.545Z,64.53
2023-04-11T22:28:08.570Z,64.29
2023-04-11T22:30:35.471Z,64.09
2023-04-11T22:33:02.491Z,63.33
2023-04-11T22:35:32.967Z,64.17
2023-04-11T22:37:59.925Z,63.23
2023-04-11T22:40:27.229Z,64.28
2023-04-11T22:42:54.407Z,64.33
2023-04-11T22:45:23.084Z,63.83
2023-04-11T22:47:50.134Z,61.85
2023-04-11T22:50:17.055Z,61.29
2023-04-11T22:52:45.576Z,61.66
2023-04-11T22:55:12.793Z,62.16
2023-04-11T22:57:39.838Z,60.32
2023-04-11T23:00:08.943Z,60.94
2023-04-11T23:02:36.488Z,61.21
2023-04-11T23:05:04.528Z,61.01
2023-04-11T23:07:32.365Z,61.35
2023-04-11T23:10:00.746Z,61.50
2023-04-11T23:12:28.348Z,61.51
2023-04-11T23:14:55.522Z,61.75
2023-04-11T23:17:22.443Z,62.10
2023-04-11T23:19:49.642Z,62.16
2023-04-11T23:22:16.735Z,62.90
2023-04-11T23:24:43.674Z,62.89
2023-04-11T23:27:12.296Z,62.33
2023-04-11T23:29:39.542Z,62.89
2023-04-11T23:32:06.560Z,63.05
2023-04-11T23:34:33.498Z,62.47
2023-04-11T23:37:00.371Z,62.13
2023-04-11T23:39:27.242Z,62.07
2023-04-11T23:41:54.113Z,61.79
2023-04-11T23:44:22.423Z,61.38
2023-04-11T23:46:49.821Z,59.86
2023-04-11T23:49:16.722Z,61.08
2023-04-11T23:51:43.776Z,60.87
2023-04-11T23:54:10.704Z,61.81
2023-04-11T23:56:37.855Z,60.87
2023-04-11T23:59:05.006Z,60.01
